Latest Weather Observations for Fingal

IDT60801

Issued at 11:05 pm EST Thursday 24 April 2014 (issued every 30 minutes, with the page automatically refreshed every 10 minutes)

About weather observations | Map of weather stations | Latest weather observations for TAS | Other Formats
Station Details ID: 092012 Name: FINGAL (LEGGE STREET) Lat: -41.64 Lon: 147.97 Height: 237.0 m
Data from the previous 72 hours. | See also: Recent months at Fingal
Date/Time
EST
Temp
°C
App
Temp
°C
Dew
Point
Rel
Hum
%
Delta-T
°C
Wind Press
QNH
hPa
Press
MSL
hPa
Rain
since 9 am
mm
Dir
 
Spd
km/h
Gust
km/h
Spd
kts
Gust
kts
24/11:00pm 0.8 -2.7 -2.6 78 1.2 SE 6 9 3 5 - - 0.2
24/10:30pm 1.3 -2.3 -1.8 80 1.1 NE 7 13 4 7 - - 0.2
24/10:00pm 1.3 -2.3 -2.3 77 1.3 SSE 7 13 4 7 - - 0.2
24/09:30pm 2.5 -1.4 -1.8 73 1.5 NNE 9 17 5 9 - - 0.2
24/09:00pm 2.5 -0.9 -2.2 71 1.7 NNW 6 9 3 5 - - 0.2
24/08:30pm 4.2 0.8 -1.8 65 2.2 W 6 9 3 5 - - 0.2
24/08:00pm 3.2 -0.4 -2.1 68 1.9 S 7 13 4 7 - - 0.2
24/07:30pm 3.9 0.3 -2.3 64 2.2 S 7 11 4 6 - - 0.2
24/07:00pm 5.6 1.6 -2.2 57 2.9 NNE 9 11 5 6 - - 0.2
24/06:30pm 7.9 4.2 -3.0 46 4.0 SW 7 13 4 7 - - 0.2
24/06:00pm 9.3 4.0 -3.3 41 4.7 SW 15 24 8 13 - - 0.2
24/05:30pm 9.1 5.0 -2.8 43 4.5 SW 9 17 5 9 - - 0.2
24/05:00pm 10.2 5.0 -3.1 39 5.1 SW 15 28 8 15 - - 0.2
24/04:30pm 11.2 5.3 -2.6 38 5.4 WSW 19 32 10 17 - - 0.2
24/04:00pm 11.2 6.6 -1.2 42 5.0 SW 13 30 7 16 - - 0.2
24/03:30pm 12.1 7.1 -1.4 39 5.4 SW 15 28 8 15 - - 0.2
24/03:00pm 12.5 6.6 -2.1 36 5.8 SW 19 39 10 21 - - 0.2
24/02:31pm 12.5 4.0 -3.7 32 6.2 W 32 52 17 28 - - 0.2
24/02:30pm 12.5 4.3 -3.7 32 6.2 W 30 46 16 25 - - 0.2
24/02:00pm 12.4 6.2 -0.5 41 5.3 SW 22 39 12 21 - - 0.2
24/01:30pm 12.6 6.2 -1.7 37 5.8 SW 22 43 12 23 - - 0.2
24/01:00pm 13.1 8.3 2.4 48 4.7 W 17 26 9 14 - - 0.2
24/12:30pm 11.5 7.2 3.5 58 3.6 W 15 30 8 16 - - 0.2
24/12:00pm 10.7 5.3 2.3 56 3.6 SSW 20 37 11 20 - - 0.2
24/11:30am 11.3 6.8 4.1 61 3.3 SSW 17 32 9 17 - - 0.2
24/11:00am 11.7 5.8 1.6 50 4.3 SW 22 35 12 19 - - 0.0
24/10:30am 11.9 5.9 3.2 55 3.9 WSW 24 46 13 25 - - 0.0
24/10:00am 11.6 6.5 3.9 59 3.5 WSW 20 41 11 22 - - 0.0
24/09:30am 11.5 6.3 3.8 59 3.5 WSW 20 37 11 20 - - 0.0
24/09:00am 11.4 7.6 3.9 60 3.4 WSW 13 22 7 12 - - 0.8
24/08:30am 11.0 7.8 5.3 68 2.6 W 11 24 6 13 - - 0.8
24/08:00am 9.0 6.9 5.9 81 1.4 S 6 11 3 6 - - 0.8
24/07:30am 9.2 6.5 5.8 79 1.6 SSW 9 15 5 8 - - 0.8
24/07:00am 10.3 5.1 5.7 73 2.1 SW 22 39 12 21 - - 0.6
24/06:30am 11.6 7.2 7.3 75 2.1 W 20 43 11 23 - - 0.6
24/06:00am 12.6 10.6 8.7 77 2.0 ENE 9 19 5 10 - - 0.0
24/05:30am 12.5 11.2 7.8 73 2.3 NE 4 9 2 5 - - 0.0
24/05:00am 12.1 10.2 7.4 73 2.3 N 7 11 4 6 - - 0.0
24/04:30am 11.8 9.4 7.1 73 2.3 NNE 9 17 5 9 - - 0.0
24/04:00am 10.9 8.9 6.3 73 2.2 NNE 6 11 3 6 - - 0.0
24/03:30am 12.2 10.0 6.0 66 3.0 NE 7 13 4 7 - - 0.0
24/03:00am 12.3 9.4 6.4 67 2.8 ENE 11 19 6 10 - - 0.0
24/02:30am 11.7 9.5 6.2 69 2.6 NE 7 11 4 6 - - 0.0
24/02:00am 11.1 8.8 5.6 69 2.6 NNW 7 11 4 6 - - 0.0
24/01:30am 11.6 8.4 5.0 64 3.1 NNE 11 17 6 9 - - 0.0
24/01:00am 11.4 7.9 5.5 67 2.8 NNW 13 17 7 9 - - 0.0
24/12:30am 11.7 8.3 6.0 68 2.7 NW 13 22 7 12 - - 0.0
24/12:00am 9.4 6.9 4.0 69 2.4 N 6 13 3 7 - - 0.0
 
Date/Time
EST
Temp
°C
App
Temp
°C
Dew
Point
Rel
Hum
%
Delta-T
°C
Wind Press
QNH
hPa
Press
MSL
hPa
Rain
since 9 am
mm
Dir
 
Spd
km/h
Gust
km/h
Spd
kts
Gust
kts
23/11:30pm 12.2 7.8 4.7 60 3.5 WNW 17 30 9 16 - - 0.0
23/11:00pm 11.3 9.0 5.0 65 2.9 SSW 6 13 3 7 - - 0.0
23/10:30pm 12.6 8.7 5.3 61 3.4 NW 15 28 8 15 - - 0.0
23/10:00pm 11.7 8.1 4.9 63 3.1 WNW 13 24 7 13 - - 0.0
23/09:30pm 11.2 8.5 5.7 69 2.6 WNW 9 17 5 9 - - 0.0
23/09:00pm 9.2 6.2 5.9 80 1.5 NNE 11 15 6 8 - - 0.0
23/08:30pm 9.3 7.0 5.5 77 1.7 N 7 20 4 11 - - 0.0
23/08:00pm 8.5 6.0 4.9 78 1.6 N 7 11 4 6 - - 0.0
23/07:30pm 9.9 6.7 5.3 73 2.1 NNE 11 15 6 8 - - 0.0
23/07:00pm 10.5 8.2 5.5 71 2.3 NNW 7 11 4 6 - - 0.0
23/06:30pm 11.3 8.1 5.2 66 2.8 N 11 15 6 8 - - 0.0
23/06:00pm 11.6 9.1 5.0 64 3.1 NNE 7 13 4 7 - - 0.0
23/05:30pm 12.2 10.3 5.1 62 3.3 ESE 4 7 2 4 - - 0.0
23/05:00pm 13.8 12.7 4.9 55 4.2 CALM 0 6 0 3 - - 0.0
23/04:30pm 14.5 10.9 5.0 53 4.5 NNW 13 19 7 10 - - 0.0
23/04:00pm 13.9 9.6 5.3 56 4.1 N 17 24 9 13 - - 0.0
23/03:30pm 14.4 10.3 6.0 57 4.1 NNW 17 24 9 13 - - 0.0
23/03:00pm 15.3 12.8 4.9 50 5.0 N 7 9 4 5 - - 0.0
23/02:30pm 15.7 12.4 4.4 47 5.3 NNW 11 17 6 9 - - 0.0
23/02:00pm 16.1 11.8 3.2 42 6.0 NNW 15 20 8 11 - - 0.0
23/01:30pm 15.9 11.1 4.6 47 5.4 N 19 30 10 16 - - 0.0
23/01:00pm 15.7 10.4 2.8 42 5.9 N 20 32 11 17 - - 0.0
23/12:30pm 15.9 11.0 4.3 46 5.5 NNW 19 26 10 14 - - 0.0
23/12:00pm 15.3 12.8 4.7 49 5.0 NNE 7 11 4 6 - - 0.0
23/11:30am 14.9 12.5 5.1 52 4.7 NNE 7 11 4 6 - - 0.0
23/11:00am 13.8 11.1 5.7 58 3.9 NNE 9 13 5 7 - - 0.0
23/10:30am 12.8 9.9 4.8 58 3.7 NNE 9 11 5 6 - - 0.0
23/10:00am 11.8 9.4 4.3 60 3.4 NE 6 9 3 5 - - 0.0
23/09:30am 8.2 5.7 3.5 72 2.0 N 6 9 3 5 - - 0.0
23/09:00am 5.6 2.9 2.8 82 1.2 NNE 6 7 3 4 - - 0.2
23/08:30am 3.8 0.4 1.8 87 0.8 NNE 9 17 5 9 - - 0.2
23/08:00am 2.2 -0.4 1.2 93 0.4 ESE 4 9 2 5 - - 0.2
23/07:30am -0.3 -3.6 -1.4 92 0.4 SE 6 9 3 5 - - 0.2
23/07:00am -0.5 -3.9 -1.8 91 0.4 NNE 6 7 3 4 - - 0.2
23/06:30am -0.1 -3.4 -1.4 91 0.5 SSE 6 9 3 5 - - 0.2
23/06:00am 0.1 -3.2 -1.2 91 0.5 SW 6 7 3 4 - - 0.2
23/05:30am 0.1 -2.8 -1.2 91 0.5 NNW 4 9 2 5 - - 0.2
23/05:00am 0.6 -2.2 -0.7 91 0.5 S 4 7 2 4 - - 0.2
23/04:30am 0.6 -2.6 -0.8 90 0.5 ESE 6 9 3 5 - - 0.2
23/04:00am 1.3 -1.8 0.0 91 0.5 SSE 6 9 3 5 - - 0.2
23/03:30am 1.3 -2.0 0.0 91 0.5 SSE 7 9 4 5 - - 0.2
23/03:00am 1.1 -2.1 -0.5 89 0.6 S 6 7 3 4 - - 0.2
23/02:30am 1.5 -1.7 -0.3 88 0.7 SSE 6 7 3 4 - - 0.2
23/02:00am 2.0 -0.7 0.4 89 0.6 W 4 7 2 4 - - 0.2
23/01:30am 2.5 0.2 0.7 88 0.7 WSW 2 7 1 4 - - 0.2
23/01:00am 2.7 0.5 0.8 87 0.7 SW 2 6 1 3 - - 0.2
23/12:30am 3.4 0.9 1.3 86 0.8 SW 4 7 2 4 - - 0.2
23/12:00am 3.7 1.9 1.3 84 0.9 CALM 0 0 0 0 - - 0.2
 
Date/Time
EST
Temp
°C
App
Temp
°C
Dew
Point
Rel
Hum
%
Delta-T
°C
Wind Press
QNH
hPa
Press
MSL
hPa
Rain
since 9 am
mm
Dir
 
Spd
km/h
Gust
km/h
Spd
kts
Gust
kts
22/11:30pm 6.1 2.9 3.1 81 1.3 SSW 9 11 5 6 - - 0.2
22/11:00pm 6.2 2.6 2.8 79 1.4 WSW 11 15 6 8 - - 0.2
22/10:30pm 6.7 4.8 3.0 77 1.6 NW 2 11 1 6 - - 0.2
22/10:00pm 8.2 4.7 3.5 72 2.0 WSW 11 15 6 8 - - 0.2
22/09:30pm 6.4 4.7 1.9 73 1.8 CALM 0 11 0 6 - - 0.2
22/09:00pm 7.4 5.4 2.3 70 2.1 WSW 2 6 1 3 - - 0.2
22/08:30pm 8.6 5.3 2.6 66 2.6 S 9 11 5 6 - - 0.2
22/08:00pm 12.1 8.8 2.3 51 4.3 S 9 13 5 7 - - 0.2
22/07:30pm 12.8 9.6 2.9 51 4.4 SW 9 15 5 8 - - 0.2
22/07:00pm 13.7 9.8 3.5 50 4.7 SSW 13 20 7 11 - - 0.2
22/06:30pm 14.1 10.8 4.4 52 4.5 SSW 11 19 6 10 - - 0.2
22/06:00pm 14.3 11.5 5.1 54 4.4 SW 9 13 5 7 - - 0.2
22/05:30pm 14.5 11.8 5.6 55 4.3 WSW 9 15 5 8 - - 0.2
22/05:00pm 15.6 13.1 4.6 48 5.2 WSW 7 13 4 7 - - 0.2
22/04:30pm 17.1 14.2 4.4 43 6.1 WSW 9 17 5 9 - - 0.2
22/04:00pm 18.2 15.5 5.4 43 6.3 WNW 9 20 5 11 - - 0.2
22/03:30pm 18.1 13.7 5.0 42 6.4 W 17 26 9 14 - - 0.2
22/03:00pm 18.3 13.7 5.8 44 6.2 WNW 19 28 10 15 - - 0.2
22/02:30pm 19.1 14.4 5.2 40 6.8 W 19 30 10 16 - - 0.2
22/02:00pm 19.2 14.2 3.8 36 7.4 WSW 19 35 10 19 - - 0.0
22/01:30pm 19.8 15.7 4.3 36 7.5 WSW 15 33 8 18 - - 0.0
22/01:00pm 20.0 15.8 3.7 34 7.8 W 15 30 8 16 - - 0.0
22/12:30pm 19.7 15.1 5.7 40 7.0 W 19 30 10 16 - - 0.0
22/12:00pm 19.1 14.6 6.9 45 6.2 WNW 20 33 11 18 - - 0.0
22/11:30am 18.7 14.6 8.7 52 5.3 NW 20 30 11 16 - - 0.0
22/11:00am 17.0 13.7 9.7 62 3.9 NW 17 26 9 14 - - 0.0
22/10:30am 15.8 12.6 10.1 69 3.0 NNW 17 26 9 14 - - 0.0
22/10:00am 14.8 13.9 11.4 80 1.8 SSE 7 11 4 6 - - 0.0
22/09:30am 14.4 13.1 11.2 81 1.7 N 9 17 5 9 - - 0.0
22/09:00am 14.4 12.2 10.8 79 1.9 N 13 20 7 11 - - 4.8
22/08:30am 13.2 12.2 11.1 87 1.1 NW 7 17 4 9 - - 4.8
22/08:00am 12.9 11.5 11.0 88 1.0 SSE 9 13 5 7 - - 4.8
22/07:30am 13.4 12.4 11.1 86 1.2 N 7 13 4 7 - - 4.2
22/07:00am 14.0 12.7 11.2 83 1.5 NNW 9 15 5 8 - - 3.4
22/06:30am 14.0 12.6 11.0 82 1.6 N 9 15 5 8 - - 3.2
22/06:00am 15.6 12.6 10.6 72 2.7 NW 17 30 9 16 - - 2.8
22/05:30am 15.8 12.7 10.3 70 2.9 NW 17 26 9 14 - - 2.8
22/05:00am 15.9 12.3 10.7 71 2.8 WNW 20 32 11 17 - - 2.8
22/04:30am 16.1 12.7 10.4 69 3.0 NW 19 30 10 16 - - 2.8
22/04:00am 16.0 13.3 10.3 69 3.0 NW 15 24 8 13 - - 2.8
22/03:30am 15.6 12.9 10.2 70 2.9 WNW 15 35 8 19 - - 2.8
22/03:00am 15.7 13.7 10.0 69 3.0 SSW 11 20 6 11 - - 2.8
22/02:30am 14.2 12.7 10.6 79 1.9 NNE 9 19 5 10 - - 2.8
22/02:00am 12.7 12.9 10.6 87 1.1 CALM 0 6 0 3 - - 2.8
22/01:30am 13.1 12.0 10.6 85 1.3 NNW 7 17 4 9 - - 2.6
22/01:00am 12.3 11.1 10.2 87 1.1 ESE 7 11 4 6 - - 2.6
22/12:30am 12.3 10.8 10.4 88 1.0 SSE 9 13 5 7 - - 2.6
22/12:00am 11.7 10.1 10.3 91 0.7 SE 9 15 5 8 - - 2.6
 
Date/Time
EST
Temp
°C
App
Temp
°C
Dew
Point
Rel
Hum
%
Delta-T
°C
Wind Press
QNH
hPa
Press
MSL
hPa
Rain
since 9 am
mm
Dir
 
Spd
km/h
Gust
km/h
Spd
kts
Gust
kts
21/11:30pm 11.3 10.9 9.9 91 0.7 WSW 2 7 1 4 - - 2.6

Other Formats:

Comma delimited format used in spreadsheet applications
http://www.bom.gov.au/fwo/IDT60801/IDT60801.95974.axf

JavaScript Object Notation format (JSON) in row-major order
http://www.bom.gov.au/fwo/IDT60801/IDT60801.95974.json